createdAt,value
2022-10-04T00:00:51.482Z,11.35
2022-10-04T00:05:56.711Z,9.65
2022-10-04T00:11:21.741Z,11.40
2022-10-04T00:16:39.761Z,13.90
2022-10-04T00:21:54.835Z,11.93
2022-10-04T00:27:23.061Z,10.70
2022-10-04T00:32:27.665Z,10.15
2022-10-04T00:38:07.799Z,15.93
2022-10-04T00:43:20.862Z,14.68
2022-10-04T00:48:37.038Z,16.60
2022-10-04T00:54:14.611Z,10.45
2022-10-04T00:59:34.835Z,15.73
2022-10-04T01:05:00.724Z,14.13
2022-10-04T01:10:13.962Z,13.73
2022-10-04T01:15:43.187Z,14.77
2022-10-04T01:20:59.125Z,13.55
2022-10-04T01:26:03.020Z,15.85
2022-10-04T01:31:05.326Z,16.58
2022-10-04T01:36:07.692Z,17.38
2022-10-04T01:41:10.953Z,11.95
2022-10-04T01:46:31.483Z,15.35
2022-10-04T01:51:54.397Z,11.10
2022-10-04T01:57:05.348Z,14.98
2022-10-04T02:02:20.677Z,9.95
2022-10-04T02:07:26.143Z,10.68
2022-10-04T02:12:31.474Z,9.80
2022-10-04T02:17:39.177Z,10.70
2022-10-04T02:22:43.215Z,11.05
2022-10-04T02:27:45.416Z,11.82
2022-10-04T02:33:00.379Z,9.50
2022-10-04T02:38:19.085Z,12.88
2022-10-04T02:43:30.370Z,8.57
2022-10-04T02:48:52.020Z,12.23
2022-10-04T02:54:35.301Z,7.25
2022-10-04T02:59:39.579Z,9.10
2022-10-04T03:04:41.696Z,7.25
2022-10-04T03:09:43.685Z,5.75
2022-10-04T03:14:45.705Z,8.90
2022-10-04T03:19:51.452Z,8.98
2022-10-04T03:24:57.056Z,8.05
2022-10-04T03:30:02.004Z,6.03
2022-10-04T03:35:12.890Z,7.15
2022-10-04T03:40:15.342Z,7.60
2022-10-04T03:45:19.731Z,6.32
2022-10-04T03:50:24.883Z,9.23
2022-10-04T03:55:35.437Z,6.80
2022-10-04T04:00:44.266Z,9.82
2022-10-04T04:06:00.384Z,9.98
2022-10-04T04:11:05.057Z,8.70
2022-10-04T04:16:09.463Z,6.68
2022-10-04T04:21:18.642Z,9.45
2022-10-04T04:26:42.340Z,9.40
2022-10-04T04:31:51.944Z,9.75
2022-10-04T04:36:59.383Z,8.82
2022-10-04T04:42:10.437Z,9.65
2022-10-04T04:47:22.069Z,9.13
2022-10-04T04:52:27.599Z,7.70
2022-10-04T04:57:29.591Z,7.35
2022-10-04T05:02:38.069Z,8.45
2022-10-04T05:07:43.542Z,9.30
2022-10-04T05:12:47.122Z,9.35
2022-10-04T05:17:49.029Z,8.45
2022-10-04T05:22:51.511Z,9.35
2022-10-04T05:27:54.592Z,10.98
2022-10-04T05:33:07.293Z,7.47
2022-10-04T05:38:30.897Z,6.55
2022-10-04T05:43:37.690Z,12.07
2022-10-04T05:48:41.470Z,7.30
2022-10-04T05:53:44.192Z,12.93
2022-10-04T05:59:04.637Z,10.95
2022-10-04T06:04:49.821Z,9.90
2022-10-04T06:10:19.595Z,5.50
2022-10-04T06:15:59.115Z,9.55
2022-10-04T06:21:21.458Z,5.40
2022-10-04T06:26:30.357Z,9.52
2022-10-04T06:31:58.696Z,6.00
2022-10-04T06:37:32.010Z,4.70
2022-10-04T06:42:56.228Z,6.80
2022-10-04T06:48:16.824Z,8.80
2022-10-04T06:53:30.065Z,4.35
2022-10-04T06:59:00.514Z,6.63
2022-10-04T07:04:37.662Z,6.60
2022-10-04T07:09:57.761Z,7.75
2022-10-04T07:15:05.134Z,8.10
2022-10-04T07:20:17.986Z,8.02
2022-10-04T07:25:24.196Z,7.73
2022-10-04T07:30:37.952Z,7.90
2022-10-04T07:35:47.557Z,12.45
2022-10-04T07:40:58.540Z,7.18
2022-10-04T07:46:38.556Z,8.48
2022-10-04T07:52:10.262Z,4.68
2022-10-04T07:57:36.257Z,8.20
2022-10-04T08:02:54.603Z,5.57
2022-10-04T08:08:04.781Z,6.57
2022-10-04T08:13:37.373Z,8.77
2022-10-04T08:19:00.389Z,5.30
2022-10-04T08:24:21.950Z,5.20
2022-10-04T08:30:04.810Z,6.97
2022-10-04T08:35:06.836Z,11.05
2022-10-04T08:40:36.745Z,6.10
2022-10-04T08:45:44.867Z,5.40
2022-10-04T08:51:24.429Z,6.80
2022-10-04T08:56:44.520Z,4.07
2022-10-04T09:01:55.424Z,7.50
2022-10-04T09:07:15.324Z,7.68
2022-10-04T09:12:44.431Z,5.38
2022-10-04T09:18:05.874Z,6.07
2022-10-04T09:23:37.531Z,7.32
2022-10-04T09:29:02.460Z,3.03
2022-10-04T09:34:44.234Z,5.45
2022-10-04T09:40:27.485Z,6.07
2022-10-04T09:45:47.693Z,4.73
2022-10-04T09:51:08.099Z,5.10
2022-10-04T09:56:13.116Z,3.80
2022-10-04T10:01:21.171Z,4.85
2022-10-04T10:06:41.699Z,3.83
2022-10-04T10:12:21.227Z,2.60
2022-10-04T10:17:37.962Z,3.90
2022-10-04T10:22:58.385Z,6.00
2022-10-04T10:28:26.408Z,3.13
2022-10-04T10:33:40.268Z,3.17
2022-10-04T10:38:55.269Z,3.92
2022-10-04T10:44:29.723Z,2.13
2022-10-04T10:49:48.171Z,4.68
2022-10-04T10:55:19.508Z,2.88
2022-10-04T11:00:23.967Z,3.83
2022-10-04T11:06:25.172Z,7.60
2022-10-04T11:11:56.122Z,3.53
2022-10-04T11:17:10.269Z,10.18
2022-10-04T11:22:24.522Z,2.65
2022-10-04T11:27:51.848Z,3.15
2022-10-04T11:33:26.857Z,4.07
2022-10-04T11:38:49.014Z,3.72
2022-10-04T11:44:05.367Z,5.18
2022-10-04T11:49:13.417Z,9.50
2022-10-04T11:55:02.102Z,3.00
2022-10-04T12:00:20.882Z,4.03
2022-10-04T12:05:29.682Z,4.13
2022-10-04T12:10:38.390Z,5.85
2022-10-04T12:16:05.667Z,5.85
2022-10-04T12:21:35.084Z,5.68
2022-10-04T12:26:59.753Z,5.13
2022-10-04T12:32:12.158Z,4.53
2022-10-04T12:37:39.028Z,5.45
2022-10-04T12:43:06.148Z,8.25
2022-10-04T12:48:13.722Z,6.88
2022-10-04T12:53:34.708Z,4.80
2022-10-04T12:58:43.291Z,4.20
2022-10-04T13:03:54.375Z,5.43
2022-10-04T13:08:57.556Z,7.53
2022-10-04T13:14:25.821Z,3.97
2022-10-04T13:19:58.448Z,4.55
2022-10-04T13:25:15.530Z,8.20
2022-10-04T13:31:00.653Z,5.82
2022-10-04T13:36:08.941Z,6.45
2022-10-04T13:42:10.132Z,14.77
2022-10-04T13:47:38.829Z,6.17
2022-10-04T13:53:14.649Z,8.40
2022-10-04T13:58:45.851Z,10.75
2022-10-04T14:04:32.227Z,8.13
2022-10-04T14:09:52.581Z,9.05
2022-10-04T14:15:25.731Z,8.82
2022-10-04T14:21:19.025Z,5.17
2022-10-04T14:26:34.255Z,7.35
2022-10-04T14:31:51.943Z,6.72
2022-10-04T14:36:54.109Z,7.78
2022-10-04T14:42:34.344Z,9.10
2022-10-04T14:48:18.497Z,3.92
2022-10-04T14:53:32.562Z,9.32
2022-10-04T14:59:04.895Z,8.98
2022-10-04T15:04:27.613Z,8.25
2022-10-04T15:09:50.582Z,11.52
2022-10-04T15:14:58.602Z,12.43
2022-10-04T15:20:22.975Z,9.38
2022-10-04T15:25:51.958Z,8.13
2022-10-04T15:31:25.573Z,7.68
2022-10-04T15:36:50.606Z,8.15
2022-10-04T15:42:07.860Z,16.98
2022-10-04T15:47:35.331Z,17.50
2022-10-04T15:52:44.237Z,11.00
2022-10-04T15:57:46.307Z,10.90
2022-10-04T16:02:51.255Z,8.48
2022-10-04T16:08:29.848Z,11.15
2022-10-04T16:13:57.183Z,8.02
2022-10-04T16:19:16.088Z,12.15
2022-10-04T16:24:20.440Z,11.30
2022-10-04T16:30:21.789Z,13.77
2022-10-04T16:35:45.800Z,10.70
2022-10-04T16:40:50.708Z,25.42
2022-10-04T16:46:11.237Z,15.80
2022-10-04T16:51:13.295Z,11.55
2022-10-04T16:56:20.192Z,27.50
2022-10-04T17:01:28.965Z,18.77
2022-10-04T17:06:33.890Z,23.20
2022-10-04T17:12:00.178Z,21.10
2022-10-04T17:17:25.361Z,17.20
2022-10-04T17:22:33.312Z,20.98
2022-10-04T17:27:59.884Z,18.55
2022-10-04T17:33:43.675Z,26.23
2022-10-04T17:38:56.775Z,48.53
2022-10-04T17:44:36.954Z,60.27
2022-10-04T17:50:12.704Z,67.25
2022-10-04T17:55:44.137Z,64.55
2022-10-04T18:01:45.571Z,60.63
2022-10-04T18:07:17.451Z,38.35
2022-10-04T18:12:54.739Z,80.05
2022-10-04T18:18:11.055Z,102.00
2022-10-04T18:23:21.320Z,84.53
2022-10-04T18:28:24.969Z,50.72
2022-10-04T18:33:49.301Z,29.23
2022-10-04T18:39:03.762Z,25.85
2022-10-04T18:44:14.678Z,27.38
2022-10-04T18:49:30.783Z,39.13
2022-10-04T18:54:49.636Z,50.60
2022-10-04T19:00:19.690Z,73.40
2022-10-04T19:05:52.277Z,47.15
2022-10-04T19:11:02.845Z,36.00
2022-10-04T19:16:20.330Z,32.42
2022-10-04T19:21:40.384Z,51.95
2022-10-04T19:26:46.594Z,43.70
2022-10-04T19:32:00.766Z,40.25
2022-10-04T19:37:09.487Z,34.83
2022-10-04T19:42:19.469Z,46.78
2022-10-04T19:47:39.704Z,42.85
2022-10-04T19:52:53.359Z,33.85
2022-10-04T19:58:13.254Z,32.20
2022-10-04T20:03:15.251Z,31.98
2022-10-04T20:08:44.990Z,37.88
2022-10-04T20:14:07.212Z,41.28
2022-10-04T20:19:27.486Z,88.15
2022-10-04T20:24:39.409Z,25.70
2022-10-04T20:29:41.417Z,31.75
2022-10-04T20:34:43.239Z,36.30
2022-10-04T20:39:45.313Z,32.15
2022-10-04T20:45:01.873Z,39.97
2022-10-04T20:50:34.085Z,27.83
2022-10-04T20:55:38.887Z,30.77
2022-10-04T21:00:54.421Z,26.50
2022-10-04T21:06:02.665Z,23.92
2022-10-04T21:11:20.655Z,24.00
2022-10-04T21:16:43.476Z,27.45
2022-10-04T21:21:49.587Z,22.90
2022-10-04T21:26:57.893Z,24.75
2022-10-04T21:32:00.386Z,23.08
2022-10-04T21:37:02.356Z,28.35
2022-10-04T21:42:04.670Z,30.38
2022-10-04T21:47:06.641Z,26.55
2022-10-04T21:52:08.689Z,25.67
2022-10-04T21:57:11.252Z,23.88
2022-10-04T22:02:13.171Z,26.92
2022-10-04T22:07:15.127Z,34.30
2022-10-04T22:12:17.022Z,53.80
2022-10-04T22:17:18.900Z,40.97
2022-10-04T22:22:21.011Z,33.95
2022-10-04T22:27:23.224Z,24.52
2022-10-04T22:32:27.254Z,28.20
2022-10-04T22:37:31.123Z,27.13
2022-10-04T22:42:33.116Z,18.30
2022-10-04T22:47:35.363Z,26.08
2022-10-04T22:52:37.478Z,20.83
2022-10-04T22:57:39.473Z,23.35
2022-10-04T23:02:41.759Z,23.75
2022-10-04T23:07:44.929Z,26.10
2022-10-04T23:12:49.279Z,23.63
2022-10-04T23:17:55.339Z,16.77
2022-10-04T23:22:59.901Z,18.35
2022-10-04T23:28:07.879Z,21.00
2022-10-04T23:33:17.927Z,21.52
2022-10-04T23:38:21.987Z,18.85
2022-10-04T23:43:25.664Z,21.30
2022-10-04T23:53:33.081Z,20.65
2022-10-04T23:58:38.950Z,19.83
